Alstead, NH (03602)

1:02 AM EST on December 27, 2014 (GMT -0500)
Charlestown-Langdon | Change Station
CLOSE
Current Station
Personal Weather Station
Location: Charlestown, NH
Elevation: 505 ft
Nearby Weather Stations

Elev 505 ft 43.17 °N, 72.41 °W | Updated 7 minutes ago

Clear
Clear
27.5 °F
Feels Like 28 °F
N
0.0
Wind Variable Wind from South

Today
High -- | Low -- °F
--% Chance of Precip.
Yesterday
High -- | Low -- °F
Precip. -- in
7:20 AM 4:20 PM
Waxing Crescent, 33% visible
Pressure 30.13 in
Visibility 4.0 miles
Clouds Clear
Windchill 28 °F
Dew Point 27 °F
Humidity 99%
Rainfall 0.00 in
Snow Depth Not available.
UV 0 out of 12
Pollen .10 out of 12
Air Quality Not available.
Flu Activity Not available.
METAR KEEN 270555Z AUTO 19004KT 4SM CLR M03/M04 A3013 RMK AO1 10010 21030 57010

More Conditions Fewer Conditions

Pressure 30.13 in
Visibility 4.0 miles
Clouds Clear
Windchill 28 °F
Dew Point 27 °F
Humidity 99%
Rainfall 0.00 in
Snow Depth Not available.
UV 0 out of 12
Pollen .10 out of 12
Air Quality Not available.
Flu Activity Not available.
METAR KEEN 270555Z AUTO 19004KT 4SM CLR M03/M04 A3013 RMK AO1 10010 21030 57010

More Conditions Fewer Conditions

10-Day Weather Forecast

Almanac

Astronomy

Dec. 27, 2014 Rise Set
Actual Time
Civil Twilight
Nautical Twilight
Astronomical Twilight
Moon
Length of Visible Light
Length of Day
Tomorrow will be .
, % of the Moon is Illuminated

Today's Extremes

State Highs State Lows

Community

WunderPhotos

Upload Photos

1,780,853 photos uploaded!

WunderBlogs® & News

Nearby

Air Quality

  Air Quality AQ Index Pollutant
Not available.

Snow Depth

Station Depth Elevation

Earthquake Activity

City Distance Mag. Time & Date
Minimum magnitude displayed is 2.5.

Coastal Water Temperatures

Place Temperature

Nearby Weather Stations